createdAt,value
2022-08-26T00:01:57.497Z,100513.49
2022-08-26T00:04:30.350Z,100511.02
2022-08-26T00:07:02.190Z,100510.16
2022-08-26T00:09:37.344Z,100508.88
2022-08-26T00:12:12.246Z,100504.89
2022-08-26T00:14:44.668Z,100501.69
2022-08-26T00:17:16.412Z,100499.02
2022-08-26T00:19:48.038Z,100500.55
2022-08-26T00:22:21.478Z,100499.33
2022-08-26T00:24:53.545Z,100494.04
2022-08-26T00:27:25.318Z,100495.15
2022-08-26T00:29:57.919Z,100487.32
2022-08-26T00:32:29.621Z,100483.25
2022-08-26T00:35:01.308Z,100488.55
2022-08-26T00:37:33.702Z,100492.08
2022-08-26T00:40:11.952Z,100492.77
2022-08-26T00:42:46.264Z,100493.77
2022-08-26T00:45:19.644Z,100488.70
2022-08-26T00:47:54.210Z,100486.76
2022-08-26T00:50:30.672Z,100482.68
2022-08-26T00:53:21.437Z,100479.23
2022-08-26T00:56:04.797Z,100479.83
2022-08-26T00:58:42.926Z,100475.73
2022-08-26T01:01:15.819Z,100476.44
2022-08-26T01:03:48.363Z,100477.50
2022-08-26T01:06:20.716Z,100473.52
2022-08-26T01:08:53.298Z,100474.02
2022-08-26T01:11:25.675Z,100471.98
2022-08-26T01:14:02.045Z,100472.96
2022-08-26T01:16:35.439Z,100476.88
2022-08-26T01:19:09.132Z,100470.30
2022-08-26T01:21:47.856Z,100469.72
2022-08-26T01:24:20.270Z,100470.52
2022-08-26T01:26:53.527Z,100470.85
2022-08-26T01:29:26.193Z,100471.20
2022-08-26T01:31:57.286Z,100472.98
2022-08-26T01:34:32.055Z,100468.88
2022-08-26T01:37:10.173Z,100472.46
2022-08-26T01:39:51.134Z,100469.63
2022-08-26T01:42:25.864Z,100464.71
2022-08-26T01:45:02.010Z,100463.04
2022-08-26T01:47:37.487Z,100469.73
2022-08-26T01:50:15.801Z,100463.00
2022-08-26T01:53:02.389Z,100462.05
2022-08-26T01:55:35.427Z,100461.11
2022-08-26T01:58:23.745Z,100458.93
2022-08-26T02:00:55.391Z,100454.71
2022-08-26T02:03:28.267Z,100455.60
2022-08-26T02:06:03.869Z,100452.64
2022-08-26T02:08:39.988Z,100453.50
2022-08-26T02:11:12.531Z,100452.98
2022-08-26T02:13:46.116Z,100450.41
2022-08-26T02:16:21.419Z,100446.95
2022-08-26T02:18:54.825Z,100444.99
2022-08-26T02:21:26.898Z,100443.78
2022-08-26T02:24:08.459Z,100440.95
2022-08-26T02:26:41.825Z,100442.13
2022-08-26T02:29:21.413Z,100437.55
2022-08-26T02:31:55.784Z,100436.63
2022-08-26T02:34:31.914Z,100434.50
2022-08-26T02:37:06.415Z,100432.52
2022-08-26T02:39:41.012Z,100434.33
2022-08-26T02:42:13.105Z,100434.80
2022-08-26T02:44:45.393Z,100431.04
2022-08-26T02:47:18.231Z,100429.76
2022-08-26T02:49:50.132Z,100432.05
2022-08-26T02:52:22.080Z,100431.04
2022-08-26T02:54:54.257Z,100432.48
2022-08-26T02:57:26.957Z,100432.84
2022-08-26T02:59:59.102Z,100430.77
2022-08-26T03:02:32.049Z,100427.36
2022-08-26T03:05:04.717Z,100428.22
2022-08-26T03:07:36.413Z,100427.44
2022-08-26T03:10:08.939Z,100429.05
2022-08-26T03:12:41.399Z,100425.21
2022-08-26T03:15:17.831Z,100425.13
2022-08-26T03:17:50.679Z,100426.89
2022-08-26T03:20:20.920Z,100427.58
2022-08-26T03:22:53.371Z,100431.83
2022-08-26T03:25:28.181Z,100430.24
2022-08-26T03:28:00.211Z,100431.15
2022-08-26T03:30:45.444Z,100433.55
2022-08-26T03:33:19.102Z,100431.44
2022-08-26T03:35:52.163Z,100432.44
2022-08-26T03:38:26.166Z,100429.52
2022-08-26T03:40:58.320Z,100427.30
2022-08-26T03:43:30.126Z,100427.48
2022-08-26T03:46:05.408Z,100423.64
2022-08-26T03:48:37.558Z,100426.16
2022-08-26T03:51:18.161Z,100428.95
2022-08-26T03:53:50.441Z,100427.30
2022-08-26T03:56:22.350Z,100428.11
2022-08-26T03:58:54.770Z,100428.63
2022-08-26T04:01:26.496Z,100427.31
2022-08-26T04:04:00.100Z,100426.17
2022-08-26T04:06:36.164Z,100424.77
2022-08-26T04:09:11.032Z,100430.40
2022-08-26T04:11:44.724Z,100434.70
2022-08-26T04:14:20.244Z,100430.66
2022-08-26T04:16:53.572Z,100431.77
2022-08-26T04:19:27.695Z,100428.04
2022-08-26T04:21:59.654Z,100433.04
2022-08-26T04:24:33.014Z,100435.64
2022-08-26T04:27:05.034Z,100430.66
2022-08-26T04:29:41.594Z,100428.83
2022-08-26T04:32:13.588Z,100427.69
2022-08-26T04:34:45.513Z,100428.14
2022-08-26T04:37:18.425Z,100434.45
2022-08-26T04:39:54.037Z,100432.34
2022-08-26T04:42:26.345Z,100431.11
2022-08-26T04:44:58.864Z,100430.69
2022-08-26T04:47:32.471Z,100434.56
2022-08-26T04:50:04.889Z,100434.61
2022-08-26T04:52:39.390Z,100432.46
2022-08-26T04:55:12.341Z,100434.20
2022-08-26T04:57:45.745Z,100430.67
2022-08-26T05:00:18.588Z,100428.65
2022-08-26T05:02:51.481Z,100431.61
2022-08-26T05:05:23.444Z,100434.91
2022-08-26T05:07:55.276Z,100439.62
2022-08-26T05:10:27.721Z,100438.27
2022-08-26T05:13:00.300Z,100435.81
2022-08-26T05:15:32.338Z,100440.23
2022-08-26T05:18:04.809Z,100439.54
2022-08-26T05:20:42.059Z,100441.13
2022-08-26T05:23:14.400Z,100440.40
2022-08-26T05:25:46.286Z,100442.39
2022-08-26T05:28:19.780Z,100444.16
2022-08-26T05:30:52.441Z,100449.13
2022-08-26T05:33:23.105Z,100448.15
2022-08-26T05:35:54.877Z,100451.48
2022-08-26T05:38:30.305Z,100450.80
2022-08-26T05:41:02.372Z,100451.14
2022-08-26T05:43:35.268Z,100455.27
2022-08-26T05:46:10.008Z,100455.42
2022-08-26T05:48:44.275Z,100457.84
2022-08-26T05:51:16.272Z,100454.86
2022-08-26T05:53:54.557Z,100455.27
2022-08-26T05:56:27.906Z,100455.38
2022-08-26T05:59:02.682Z,100453.20
2022-08-26T06:01:36.696Z,100451.58
2022-08-26T06:04:09.122Z,100447.34
2022-08-26T06:06:41.629Z,100445.03
2022-08-26T06:09:15.053Z,100447.48
2022-08-26T06:11:50.029Z,100448.55
2022-08-26T06:14:21.693Z,100447.41
2022-08-26T06:16:53.604Z,100446.20
2022-08-26T06:19:25.706Z,100443.73
2022-08-26T06:22:24.937Z,100446.41
2022-08-26T06:25:15.507Z,100448.55
2022-08-26T06:27:48.861Z,100446.79
2022-08-26T06:30:21.136Z,100446.17
2022-08-26T06:32:54.348Z,100443.73
2022-08-26T06:35:26.928Z,100441.52
2022-08-26T06:37:58.808Z,100446.80
2022-08-26T06:40:31.162Z,100449.92
2022-08-26T06:43:02.895Z,100447.59
2022-08-26T06:45:34.756Z,100446.98
2022-08-26T06:48:08.570Z,100442.14
2022-08-26T06:50:42.053Z,100438.81
2022-08-26T06:53:15.388Z,100437.25
2022-08-26T06:55:48.321Z,100435.89
2022-08-26T06:58:23.565Z,100432.98
2022-08-26T07:01:01.985Z,100434.86
2022-08-26T07:03:39.480Z,100428.38
2022-08-26T07:06:12.043Z,100429.81
2022-08-26T07:08:43.989Z,100433.02
2022-08-26T07:11:16.036Z,100437.29
2022-08-26T07:13:48.889Z,100439.27
2022-08-26T07:16:21.908Z,100433.16
2022-08-26T07:18:56.145Z,100437.43
2022-08-26T07:21:29.598Z,100435.92
2022-08-26T07:24:01.783Z,100435.42
2022-08-26T07:26:33.750Z,100431.65
2022-08-26T07:29:06.853Z,100428.08
2022-08-26T07:31:43.012Z,100430.33
2022-08-26T07:34:14.998Z,100430.21
2022-08-26T07:36:46.708Z,100429.36
2022-08-26T07:39:20.924Z,100427.09
2022-08-26T07:41:52.657Z,100428.86
2022-08-26T07:44:24.623Z,100428.06
2022-08-26T07:46:56.556Z,100427.11
2022-08-26T07:49:29.655Z,100423.86
2022-08-26T07:52:02.373Z,100419.84
2022-08-26T07:54:32.473Z,100422.94
2022-08-26T07:57:05.084Z,100423.92
2022-08-26T07:59:40.255Z,100426.10
2022-08-26T08:02:12.112Z,100425.50
2022-08-26T08:04:43.829Z,100428.55
2022-08-26T08:07:16.346Z,100428.59
2022-08-26T08:09:49.534Z,100429.69
2022-08-26T08:12:21.796Z,100430.54
2022-08-26T08:14:53.604Z,100429.05
2022-08-26T08:17:25.362Z,100427.27
2022-08-26T08:19:57.140Z,100425.49
2022-08-26T08:22:28.280Z,100425.79
2022-08-26T08:25:00.104Z,100428.14
2022-08-26T08:27:37.940Z,100430.86
2022-08-26T08:30:13.722Z,100431.27
2022-08-26T08:32:46.273Z,100428.87
2022-08-26T08:35:21.123Z,100423.86
2022-08-26T08:37:54.801Z,100421.09
2022-08-26T08:40:29.248Z,100418.20
2022-08-26T08:43:06.466Z,100419.66
2022-08-26T08:45:43.444Z,100410.98
2022-08-26T08:48:27.331Z,100406.45
2022-08-26T08:51:08.572Z,100409.09
2022-08-26T08:53:43.530Z,100406.04
2022-08-26T08:56:25.487Z,100408.55
2022-08-26T08:59:14.019Z,100405.63
2022-08-26T09:01:56.560Z,100404.11
2022-08-26T09:05:15.126Z,100401.27
2022-08-26T09:07:50.304Z,100398.06
2022-08-26T09:10:35.501Z,100399.92
2022-08-26T09:13:16.354Z,100396.61
2022-08-26T09:15:57.659Z,100401.16
2022-08-26T09:18:46.133Z,100403.15
2022-08-26T09:21:21.086Z,100396.92
2022-08-26T09:23:57.032Z,100395.08
2022-08-26T09:26:31.286Z,100392.94
2022-08-26T09:29:05.261Z,100388.91
2022-08-26T09:31:39.069Z,100387.23
2022-08-26T09:34:19.137Z,100382.98
2022-08-26T09:36:53.658Z,100387.30
2022-08-26T09:39:37.897Z,100380.81
2022-08-26T09:42:14.309Z,100382.60
2022-08-26T09:45:00.473Z,100378.36
2022-08-26T09:47:34.937Z,100376.98
2022-08-26T09:50:13.216Z,100376.41
2022-08-26T09:52:45.078Z,100376.63
2022-08-26T09:55:23.097Z,100375.63
2022-08-26T09:57:58.208Z,100367.04
2022-08-26T10:00:35.050Z,100370.23
2022-08-26T10:03:23.396Z,100370.41
2022-08-26T10:06:01.146Z,100370.65
2022-08-26T10:08:37.103Z,100366.64
2022-08-26T10:11:18.836Z,100368.01
2022-08-26T10:13:55.812Z,100362.37
2022-08-26T10:16:33.272Z,100364.04
2022-08-26T10:19:13.855Z,100361.89
2022-08-26T10:21:54.890Z,100361.55
2022-08-26T10:24:32.896Z,100357.13
2022-08-26T10:27:23.908Z,100351.12
2022-08-26T10:30:05.020Z,100350.40
2022-08-26T10:32:41.863Z,100350.23
2022-08-26T10:35:16.918Z,100349.83
2022-08-26T10:37:53.567Z,100347.38
2022-08-26T10:40:29.394Z,100347.66
2022-08-26T10:43:11.414Z,100341.81
2022-08-26T10:45:48.973Z,100343.91
2022-08-26T10:48:35.561Z,100343.57
2022-08-26T10:51:09.260Z,100342.48
2022-08-26T10:53:51.406Z,100341.96
2022-08-26T10:56:41.231Z,100343.70
2022-08-26T10:59:24.665Z,100339.39
2022-08-26T11:02:08.756Z,100336.77
2022-08-26T11:04:49.522Z,100331.30
2022-08-26T11:07:43.840Z,100324.98
2022-08-26T11:11:04.728Z,100325.10
2022-08-26T11:14:02.726Z,100322.52
2022-08-26T11:16:43.232Z,100319.62
2022-08-26T11:20:00.826Z,100320.15
2022-08-26T11:22:38.039Z,100315.29
2022-08-26T11:25:19.889Z,100309.09
2022-08-26T11:28:00.755Z,100309.02
2022-08-26T11:30:57.774Z,100307.46
2022-08-26T11:33:51.195Z,100304.79
2022-08-26T11:36:56.484Z,100299.35
2022-08-26T11:39:36.814Z,100294.11
2022-08-26T11:42:27.803Z,100291.45
2022-08-26T11:45:04.719Z,100290.83
2022-08-26T11:47:37.701Z,100286.31
2022-08-26T11:50:12.678Z,100287.05
2022-08-26T11:52:53.709Z,100285.55
2022-08-26T11:55:25.595Z,100282.36
2022-08-26T11:58:00.900Z,100282.10
2022-08-26T12:00:40.192Z,100274.55
2022-08-26T12:03:22.916Z,100275.73
2022-08-26T12:05:57.211Z,100275.48
2022-08-26T12:08:34.431Z,100272.13
2022-08-26T12:11:10.060Z,100270.46
2022-08-26T12:13:42.748Z,100263.86
2022-08-26T12:16:26.523Z,100266.86
2022-08-26T12:18:58.837Z,100266.27
2022-08-26T12:21:34.814Z,100264.42
2022-08-26T12:24:07.535Z,100254.98
2022-08-26T12:26:40.497Z,100253.25
2022-08-26T12:29:26.868Z,100249.70
2022-08-26T12:32:13.530Z,100244.59
2022-08-26T12:34:49.014Z,100245.25
2022-08-26T12:37:21.117Z,100240.90
2022-08-26T12:39:52.927Z,100239.86
2022-08-26T12:42:43.079Z,100235.09
2022-08-26T12:45:27.250Z,100228.19
2022-08-26T12:48:02.334Z,100228.47
2022-08-26T12:50:37.129Z,100228.19
2022-08-26T12:53:21.085Z,100227.54
2022-08-26T12:55:56.163Z,100218.48
2022-08-26T12:58:31.677Z,100213.39
2022-08-26T13:01:23.610Z,100215.14
2022-08-26T13:03:54.450Z,100206.61
2022-08-26T13:06:31.400Z,100209.05
2022-08-26T13:09:06.333Z,100201.48
2022-08-26T13:12:02.161Z,100197.91
2022-08-26T13:14:34.365Z,100194.47
2022-08-26T13:17:06.445Z,100190.39
2022-08-26T13:19:38.249Z,100191.95
2022-08-26T13:22:12.969Z,100190.93
2022-08-26T13:24:46.147Z,100193.77
2022-08-26T13:27:20.566Z,100189.25
2022-08-26T13:29:53.029Z,100184.62
2022-08-26T13:32:27.283Z,100184.13
2022-08-26T13:35:00.467Z,100179.83
2022-08-26T13:37:37.458Z,100177.73
2022-08-26T13:40:11.291Z,100170.75
2022-08-26T13:42:49.900Z,100165.83
2022-08-26T13:45:22.020Z,100169.71
2022-08-26T13:47:53.821Z,100167.95
2022-08-26T13:50:25.533Z,100165.52
2022-08-26T13:52:57.370Z,100156.67
2022-08-26T13:55:29.530Z,100159.59
2022-08-26T13:57:59.845Z,100153.67
2022-08-26T14:00:32.350Z,100152.83
2022-08-26T14:03:04.596Z,100150.85
2022-08-26T14:05:36.476Z,100148.94
2022-08-26T14:08:08.725Z,100145.48
2022-08-26T14:10:39.233Z,100144.27
2022-08-26T14:13:10.923Z,100142.13
2022-08-26T14:15:43.072Z,100141.72
2022-08-26T14:18:16.072Z,100140.64
2022-08-26T14:20:51.470Z,100141.02
2022-08-26T14:23:23.452Z,100144.73
2022-08-26T14:25:54.484Z,100143.48
2022-08-26T14:31:03.666Z,100146.60
2022-08-26T14:33:38.214Z,100142.16
2022-08-26T14:36:29.048Z,100142.41
2022-08-26T14:39:04.259Z,100139.98
2022-08-26T14:41:39.416Z,100142.13
2022-08-26T14:44:16.224Z,100142.16
2022-08-26T14:46:50.532Z,100144.17
2022-08-26T14:49:24.155Z,100138.01
2022-08-26T14:51:56.431Z,100133.73
2022-08-26T14:54:26.681Z,100130.48
2022-08-26T14:57:01.382Z,100128.98
2022-08-26T14:59:35.667Z,100125.79
2022-08-26T15:02:08.997Z,100121.84
2022-08-26T15:04:45.513Z,100127.23
2022-08-26T15:07:17.313Z,100121.56
2022-08-26T15:09:49.185Z,100122.00
2022-08-26T15:12:21.171Z,100120.70
2022-08-26T15:14:53.010Z,100117.55
2022-08-26T15:17:24.948Z,100117.30
2022-08-26T15:19:56.768Z,100109.35
2022-08-26T15:22:29.844Z,100106.07
2022-08-26T15:25:02.231Z,100102.95
2022-08-26T15:27:34.499Z,100101.67
2022-08-26T15:30:07.969Z,100103.10
2022-08-26T15:32:40.520Z,100103.64
2022-08-26T15:35:12.661Z,100096.81
2022-08-26T15:37:44.506Z,100102.73
2022-08-26T15:40:18.403Z,100098.05
2022-08-26T15:43:01.219Z,100099.82
2022-08-26T15:45:43.380Z,100102.38
2022-08-26T15:48:16.269Z,100102.61
2022-08-26T15:50:54.107Z,100099.74
2022-08-26T15:53:26.899Z,100103.38
2022-08-26T15:55:59.772Z,100104.56
2022-08-26T15:58:31.838Z,100102.77
2022-08-26T16:01:04.485Z,100105.98
2022-08-26T16:03:36.767Z,100108.34
2022-08-26T16:06:07.499Z,100100.25
2022-08-26T16:08:39.910Z,100100.75
2022-08-26T16:11:11.960Z,100102.50
2022-08-26T16:13:42.169Z,100104.01
2022-08-26T16:16:14.644Z,100106.42
2022-08-26T16:18:46.977Z,100104.16
2022-08-26T16:21:20.668Z,100102.56
2022-08-26T16:23:53.339Z,100102.95
2022-08-26T16:26:28.177Z,100104.31
2022-08-26T16:29:00.033Z,100100.19
2022-08-26T16:31:32.233Z,100094.65
2022-08-26T16:34:04.103Z,100091.30
2022-08-26T16:36:37.022Z,100086.66
2022-08-26T16:39:10.597Z,100084.98
2022-08-26T16:41:42.440Z,100088.89
2022-08-26T16:44:14.554Z,100082.84
2022-08-26T16:46:47.153Z,100085.21
2022-08-26T16:49:19.117Z,100082.77
2022-08-26T16:51:50.864Z,100085.01
2022-08-26T16:54:22.614Z,100086.14
2022-08-26T16:56:54.387Z,100085.80
2022-08-26T16:59:26.228Z,100088.08
2022-08-26T17:01:58.243Z,100092.23
2022-08-26T17:04:28.701Z,100087.95
2022-08-26T17:07:00.658Z,100086.46
2022-08-26T17:09:32.947Z,100083.55
2022-08-26T17:12:03.219Z,100085.19
2022-08-26T17:14:34.973Z,100087.33
2022-08-26T17:17:07.044Z,100088.96
2022-08-26T17:19:46.856Z,100083.63
2022-08-26T17:22:19.808Z,100084.25
2022-08-26T17:24:51.632Z,100077.30
2022-08-26T17:27:23.597Z,100081.75
2022-08-26T17:29:55.267Z,100080.98
2022-08-26T17:32:27.078Z,100081.80
2022-08-26T17:34:59.174Z,100078.05
2022-08-26T17:37:30.859Z,100083.48
2022-08-26T17:40:03.115Z,100080.70
2022-08-26T17:42:37.625Z,100083.96
2022-08-26T17:45:11.435Z,100084.66
2022-08-26T17:47:44.088Z,100081.20
2022-08-26T17:50:18.105Z,100084.57
2022-08-26T17:52:50.007Z,100081.95
2022-08-26T17:55:22.195Z,100085.38
2022-08-26T17:57:54.519Z,100081.14
2022-08-26T18:00:28.328Z,100079.64
2022-08-26T18:03:01.332Z,100077.26
2022-08-26T18:05:33.112Z,100076.80
2022-08-26T18:08:05.489Z,100079.04
2022-08-26T18:10:37.756Z,100079.48
2022-08-26T18:13:09.729Z,100077.44
2022-08-26T18:15:45.302Z,100078.64
2022-08-26T18:18:17.588Z,100075.84
2022-08-26T18:20:52.529Z,100076.83
2022-08-26T18:23:33.488Z,100078.64
2022-08-26T18:26:05.447Z,100082.91
2022-08-26T18:28:37.340Z,100078.31
2022-08-26T18:31:14.354Z,100074.77
2022-08-26T18:33:46.895Z,100081.84
2022-08-26T18:36:22.020Z,100082.59
2022-08-26T18:38:54.481Z,100085.36
2022-08-26T18:41:29.141Z,100085.22
2022-08-26T18:44:01.567Z,100087.70
2022-08-26T18:46:31.965Z,100088.13
2022-08-26T18:49:05.050Z,100092.83
2022-08-26T18:51:37.914Z,100092.75
2022-08-26T18:54:11.604Z,100093.29
2022-08-26T18:56:43.881Z,100093.93
2022-08-26T18:59:17.424Z,100093.20
2022-08-26T19:01:50.706Z,100094.33
2022-08-26T19:04:23.151Z,100096.59
2022-08-26T19:06:57.061Z,100098.94
2022-08-26T19:09:31.632Z,100097.23
2022-08-26T19:12:05.134Z,100096.43
2022-08-26T19:14:37.379Z,100097.30
2022-08-26T19:17:09.540Z,100094.95
2022-08-26T19:19:41.358Z,100100.38
2022-08-26T19:22:13.314Z,100101.07
2022-08-26T19:24:45.133Z,100107.48
2022-08-26T19:27:17.496Z,100108.13
2022-08-26T19:29:49.506Z,100106.89
2022-08-26T19:32:24.258Z,100108.44
2022-08-26T19:34:56.732Z,100104.67
2022-08-26T19:37:27.041Z,100106.56
2022-08-26T19:40:01.269Z,100107.55
2022-08-26T19:42:33.058Z,100101.61
2022-08-26T19:45:24.309Z,100104.66
2022-08-26T19:47:58.414Z,100107.58
2022-08-26T19:50:32.739Z,100106.45
2022-08-26T19:53:05.941Z,100107.17
2022-08-26T19:55:38.089Z,100108.42
2022-08-26T19:58:11.759Z,100108.73
2022-08-26T20:00:43.754Z,100111.46
2022-08-26T20:03:16.197Z,100109.33
2022-08-26T20:05:49.344Z,100109.50
2022-08-26T20:08:22.565Z,100110.86
2022-08-26T20:10:55.142Z,100110.45
2022-08-26T20:13:26.915Z,100111.64
2022-08-26T20:15:59.117Z,100118.29
2022-08-26T20:18:45.177Z,100120.48
2022-08-26T20:21:29.405Z,100120.98
2022-08-26T20:24:04.047Z,100120.80
2022-08-26T20:26:38.188Z,100122.74
2022-08-26T20:29:12.101Z,100120.50
2022-08-26T20:31:45.148Z,100124.10
2022-08-26T20:34:19.708Z,100124.69
2022-08-26T20:36:52.346Z,100123.83
2022-08-26T20:39:23.432Z,100119.63
2022-08-26T20:41:55.691Z,100119.03
2022-08-26T20:44:28.924Z,100118.27
2022-08-26T20:47:00.786Z,100118.77
2022-08-26T20:49:33.204Z,100122.11
2022-08-26T20:52:07.321Z,100126.09
2022-08-26T20:54:39.129Z,100124.35
2022-08-26T20:57:11.073Z,100120.96
2022-08-26T20:59:43.613Z,100122.83
2022-08-26T21:02:13.883Z,100119.38
2022-08-26T21:04:45.766Z,100120.70
2022-08-26T21:07:17.738Z,100119.84
2022-08-26T21:09:49.647Z,100121.77
2022-08-26T21:12:23.619Z,100117.69
2022-08-26T21:14:55.460Z,100120.30
2022-08-26T21:17:27.455Z,100116.60
2022-08-26T21:19:59.310Z,100113.77
2022-08-26T21:22:31.674Z,100113.33
2022-08-26T21:25:04.258Z,100107.04
2022-08-26T21:27:37.427Z,100099.14
2022-08-26T21:30:11.996Z,100093.35
2022-08-26T21:32:44.436Z,100091.73
2022-08-26T21:35:14.739Z,100089.14
2022-08-26T21:37:46.614Z,100090.09
2022-08-26T21:40:18.776Z,100095.34
2022-08-26T21:42:50.864Z,100093.02
2022-08-26T21:45:23.050Z,100093.26
2022-08-26T21:47:54.909Z,100089.30
2022-08-26T21:50:29.535Z,100090.19
2022-08-26T21:53:01.254Z,100090.48
2022-08-26T21:55:38.606Z,100092.69
2022-08-26T21:58:10.977Z,100091.70
2022-08-26T22:00:49.512Z,100089.11
2022-08-26T22:03:21.400Z,100090.08
2022-08-26T22:05:53.784Z,100091.83
2022-08-26T22:08:28.035Z,100091.20
2022-08-26T22:11:01.310Z,100088.95
2022-08-26T22:13:37.709Z,100090.45
2022-08-26T22:16:11.398Z,100084.69
2022-08-26T22:18:43.850Z,100082.31
2022-08-26T22:21:18.412Z,100078.02
2022-08-26T22:23:50.380Z,100073.35
2022-08-26T22:26:25.765Z,100072.94
2022-08-26T22:29:00.084Z,100071.62
2022-08-26T22:31:38.362Z,100068.49
2022-08-26T22:34:13.236Z,100069.13
2022-08-26T22:36:47.070Z,100067.94
2022-08-26T22:39:22.688Z,100066.53
2022-08-26T22:41:55.260Z,100063.62
2022-08-26T22:44:25.599Z,100060.23
2022-08-26T22:46:57.359Z,100057.98
2022-08-26T22:49:29.745Z,100058.09
2022-08-26T22:52:01.674Z,100058.65
2022-08-26T22:54:33.503Z,100065.52
2022-08-26T22:57:05.573Z,100063.87
2022-08-26T22:59:37.514Z,100066.52
2022-08-26T23:02:09.304Z,100062.27
2022-08-26T23:04:44.375Z,100056.16
2022-08-26T23:07:16.485Z,100053.55
2022-08-26T23:09:48.340Z,100052.40
2022-08-26T23:12:20.119Z,100049.93
2022-08-26T23:14:52.186Z,100044.80
2022-08-26T23:17:24.050Z,100038.00
2022-08-26T23:19:58.200Z,100036.60
2022-08-26T23:22:28.496Z,100029.66
2022-08-26T23:25:00.402Z,100027.92
2022-08-26T23:27:32.344Z,100028.94
2022-08-26T23:30:04.527Z,100030.98
2022-08-26T23:32:36.485Z,100030.14
2022-08-26T23:35:10.813Z,100027.84
2022-08-26T23:37:48.125Z,100030.79
2022-08-26T23:40:26.341Z,100027.39
2022-08-26T23:43:00.611Z,100028.29
2022-08-26T23:45:32.976Z,100027.00
2022-08-26T23:48:05.269Z,100025.67
2022-08-26T23:50:54.981Z,100023.45
2022-08-26T23:53:27.076Z,100017.70
2022-08-26T23:55:58.858Z,100016.53
2022-08-26T23:58:30.749Z,100017.80
